Time;durP1;ratioP1;P1;durP2;ratioP2;P2;SDS_P1;SDS_P2;PMS_P1;PMS_P2;Temp;Humidity;BMP_temperature;BMP_pressure;BME280_temperature;BME280_humidity;BME280_pressure;Samples;Min_cycle;Max_cycle;Signal;HPM_P1;HPM_P2
2021/09/20 00:00:01;;;;;;;5.68;4.38;;;;;;;15.84;55.49;100130.66;6221033;23;20103;-78
2021/09/20 00:02:28;;;;;;;5.78;4.30;;;;;;;15.88;54.97;100133.91;6220879;23;20034;-79
2021/09/20 00:05:06;;;;;;;6.30;4.45;;;;;;;15.84;55.58;100137.75;6221015;23;20035;-78
2021/09/20 00:07:34;;;;;;;5.75;4.35;;;;;;;15.87;55.28;100140.19;6221451;23;20103;-78
2021/09/20 00:10:09;;;;;;;5.32;4.63;;;;;;;15.86;55.58;100143.81;6221585;23;20028;-78
2021/09/20 00:12:36;;;;;;;8.45;4.88;;;;;;;15.87;55.05;100145.50;6221143;23;20407;-78
2021/09/20 00:15:05;;;;;;;7.53;5.03;;;;;;;15.86;55.19;100141.16;6220687;23;20107;-78
2021/09/20 00:17:32;;;;;;;6.72;4.82;;;;;;;15.86;55.09;100143.81;6220860;23;20111;-78
2021/09/20 00:20:00;;;;;;;6.60;5.15;;;;;;;15.85;55.09;100147.44;6221091;23;20107;-78
2021/09/20 00:22:39;;;;;;;8.00;5.40;;;;;;;15.80;55.51;100145.09;6221368;23;20097;-78
2021/09/20 00:25:06;;;;;;;6.63;5.10;;;;;;;15.84;55.01;100143.06;6220577;23;20070;-79
2021/09/20 00:27:33;;;;;;;5.45;4.65;;;;;;;15.83;55.15;100146.69;6220883;23;20095;-78
2021/09/20 00:30:02;;;;;;;5.88;4.60;;;;;;;15.82;55.27;100148.50;6221335;23;20028;-79
2021/09/20 00:32:29;;;;;;;6.28;4.65;;;;;;;15.83;55.49;100146.69;6220520;23;20020;-78
2021/09/20 00:35:21;;;;;;;7.75;4.70;;;;;;;15.75;55.71;100148.09;6220339;23;20063;-78
2021/09/20 00:37:47;;;;;;;6.30;4.55;;;;;;;15.80;55.08;100145.09;6220500;23;20023;-78
2021/09/20 00:40:25;;;;;;;7.20;5.18;;;;;;;15.75;55.80;100142.78;6220773;23;20122;-78
2021/09/20 00:42:52;;;;;;;6.75;4.57;;;;;;;15.79;55.31;100143.41;6246951;23;20497;-78
2021/09/20 00:45:19;;;;;;;7.28;5.05;;;;;;;15.79;55.36;100139.91;6220133;23;20108;-78
2021/09/20 00:48:29;;;;;;;6.82;4.72;;;;;;;15.73;56.11;100142.06;6220690;23;20428;-79
2021/09/20 00:50:56;;;;;;;5.50;4.30;;;;;;;15.79;55.12;100145.22;6220841;23;20515;-78
2021/09/20 00:53:28;;;;;;;6.45;4.45;;;;;;;15.75;55.70;100141.94;6220621;23;20499;-79
2021/09/20 00:55:55;;;;;;;6.80;4.75;;;;;;;15.75;55.22;100137.47;6220275;23;20046;-78
2021/09/20 00:58:24;;;;;;;6.65;5.05;;;;;;;15.74;55.64;100141.09;6220396;23;20026;-78
2021/09/20 01:00:51;;;;;;;7.65;4.68;;;;;;;15.73;55.34;100139.41;6220218;23;20107;-78
2021/09/20 01:03:18;;;;;;;7.72;4.80;;;;;;;15.72;55.53;100137.72;6220686;23;20028;-78
2021/09/20 01:05:54;;;;;;;7.50;5.05;;;;;;;15.69;56.09;100142.38;6220161;23;20024;-79
2021/09/20 01:08:21;;;;;;;5.25;4.13;;;;;;;15.70;55.49;100144.91;6220156;23;20106;-79
2021/09/20 01:10:47;;;;;;;6.55;4.50;;;;;;;15.69;55.69;100143.25;6247231;23;20328;-79
2021/09/20 01:13:19;;;;;;;6.53;4.97;;;;;;;15.67;56.08;100142.50;6219951;23;20027;-78
2021/09/20 01:15:46;;;;;;;6.50;4.72;;;;;;;15.69;55.64;100140.56;6220277;23;20099;-78
2021/09/20 01:18:13;;;;;;;5.93;4.75;;;;;;;15.68;55.66;100138.91;6220147;23;20023;-78
2021/09/20 01:20:52;;;;;;;6.47;4.93;;;;;;;15.63;56.17;100133.06;6220029;23;20059;-79
2021/09/20 01:23:18;;;;;;;7.32;5.03;;;;;;;15.66;55.69;100143.44;6220501;23;20099;-78
2021/09/20 01:25:45;;;;;;;9.65;4.85;;;;;;;15.64;55.79;100140.91;6220182;23;20016;-78
2021/09/20 01:28:12;;;;;;;7.15;4.53;;;;;;;15.63;55.91;100141.03;6220059;23;20027;-79
2021/09/20 01:30:45;;;;;;;6.47;4.85;;;;;;;15.59;56.44;100131.59;6219993;23;20020;-78
2021/09/20 01:33:12;;;;;;;5.20;4.30;;;;;;;15.61;55.94;100142.94;6246712;23;20028;-78
2021/09/20 01:35:43;;;;;;;6.20;4.78;;;;;;;15.58;56.34;100145.81;6219813;23;20840;-78
2021/09/20 01:38:09;;;;;;;7.15;4.20;;;;;;;15.58;56.00;100141.34;6220304;23;20099;-78
2021/09/20 01:40:36;;;;;;;5.25;4.20;;;;;;;15.57;56.14;100144.97;6220387;23;20099;-78
2021/09/20 01:43:09;;;;;;;6.03;5.07;;;;;;;15.54;56.70;100141.69;6246583;23;20034;-78
2021/09/20 01:45:35;;;;;;;6.35;4.55;;;;;;;15.55;56.17;100146.88;6219970;23;20350;-79
2021/09/20 01:48:04;;;;;;;7.63;4.82;;;;;;;15.54;56.34;100145.19;6219871;23;20106;-78
2021/09/20 01:50:31;;;;;;;7.03;4.80;;;;;;;15.54;56.27;100149.63;6219910;23;20107;-78
2021/09/20 01:52:58;;;;;;;6.32;5.07;;;;;;;15.52;56.40;100148.91;6220271;23;20028;-79
2021/09/20 01:55:28;;;;;;;5.82;4.45;;;;;;;15.49;56.75;100147.31;6218963;23;20024;-79
2021/09/20 01:57:54;;;;;;;8.93;4.97;;;;;;;15.51;56.32;100148.06;6220281;23;20451;-79
2021/09/20 02:00:25;;;;;;;6.25;4.60;;;;;;;15.46;56.59;100148.41;6220243;23;20058;-78
2021/09/20 02:03:09;;;;;;;6.53;4.55;;;;;;;15.41;56.47;100147.03;6219725;23;20027;-79
2021/09/20 02:05:36;;;;;;;6.05;5.13;;;;;;;15.41;55.86;100147.03;6220166;23;20020;-78
2021/09/20 02:08:03;;;;;;;5.97;4.82;;;;;;;15.36;55.73;100144.69;6219837;23;20020;-79
2021/09/20 02:10:52;;;;;;;6.97;4.95;;;;;;;15.23;56.35;100142.94;6219596;23;20102;-78
2021/09/20 02:13:19;;;;;;;4.97;4.00;;;;;;;15.22;55.51;100137.72;6219737;23;20056;-79
2021/09/20 02:15:45;;;;;;;5.32;4.03;;;;;;;15.15;55.37;100144.41;6219666;23;20515;-77
2021/09/20 02:18:16;;;;;;;5.22;4.05;;;;;;;15.02;55.32;100145.25;6219769;23;20066;-78
2021/09/20 02:20:43;;;;;;;5.60;4.40;;;;;;;14.95;55.02;100144.84;6219459;23;20026;-78
2021/09/20 02:23:18;;;;;;;6.40;4.28;;;;;;;14.83;55.38;100148.34;6219908;23;20470;-79
2021/09/20 02:25:45;;;;;;;5.78;4.22;;;;;;;14.78;55.39;100142.50;6219628;23;20099;-78
2021/09/20 02:28:16;;;;;;;4.85;4.10;;;;;;;14.69;56.07;100142.16;6219647;23;20099;-78
2021/09/20 02:30:42;;;;;;;5.80;4.18;;;;;;;14.66;55.68;100144.19;6218710;23;20020;-79
2021/09/20 02:33:20;;;;;;;6.20;4.22;;;;;;;14.57;56.37;100150.94;6219641;23;20024;-78
2021/09/20 02:35:47;;;;;;;6.63;4.95;;;;;;;14.56;55.85;100155.41;6219667;23;20099;-79
2021/09/20 02:38:16;;;;;;;6.32;4.63;;;;;;;14.51;56.37;100148.72;6219571;23;20020;-79
2021/09/20 02:40:42;;;;;;;6.43;4.57;;;;;;;14.47;56.21;100148.06;6219424;23;20020;-79
2021/09/20 02:43:28;;;;;;;7.75;4.78;;;;;;;14.38;56.80;100154.81;6219510;23;20026;-79
2021/09/20 02:45:54;;;;;;;6.78;4.90;;;;;;;14.39;56.28;100153.03;6219721;23;20030;-78
2021/09/20 02:48:28;;;;;;;6.65;4.25;;;;;;;14.33;56.92;100154.28;6220490;23;20020;-79
2021/09/20 02:50:54;;;;;;;5.65;4.40;;;;;;;14.33;56.58;100149.81;6219483;23;20020;-78
2021/09/20 02:53:21;;;;;;;5.63;4.53;;;;;;;14.31;56.88;100146.44;6219780;23;20027;-78
2021/09/20 02:55:48;;;;;;;6.53;4.72;;;;;;;14.29;56.89;100155.44;6219472;23;20024;-78
2021/09/20 02:58:18;;;;;;;6.72;4.60;;;;;;;14.26;57.69;100153.84;6219873;23;20026;-78
2021/09/20 03:00:45;;;;;;;6.70;4.90;;;;;;;14.26;57.14;100163.56;6219756;23;20098;-78
2021/09/20 03:03:13;;;;;;;5.40;4.68;;;;;;;14.23;57.32;100155.84;6245723;23;20106;-78
2021/09/20 03:05:40;;;;;;;5.95;4.88;;;;;;;14.20;57.06;100157.75;6219570;23;20020;-78
2021/09/20 03:08:07;;;;;;;5.47;4.38;;;;;;;14.17;57.20;100157.94;6221742;23;20019;-78
2021/09/20 03:10:44;;;;;;;7.63;5.07;;;;;;;14.11;57.83;100168.94;6221944;23;20020;-78
2021/09/20 03:13:11;;;;;;;8.25;5.63;;;;;;;14.12;57.18;100164.47;6221200;23;20020;-78
2021/09/20 03:15:38;;;;;;;6.07;4.35;;;;;;;14.08;57.53;100153.25;6247572;23;20030;-78
2021/09/20 03:18:04;;;;;;;6.30;4.78;;;;;;;14.06;57.60;100157.81;6221712;23;20024;-78
2021/09/20 03:20:31;;;;;;;8.13;4.78;;;;;;;14.05;57.63;100164.03;6221186;23;20095;-78
2021/09/20 03:22:58;;;;;;;6.47;4.75;;;;;;;14.02;57.57;100166.91;6248062;23;20024;-79
2021/09/20 03:25:37;;;;;;;6.47;5.30;;;;;;;13.97;58.44;100176.94;6221563;23;20439;-78
2021/09/20 03:28:04;;;;;;;8.27;4.63;;;;;;;13.98;57.69;100170.69;6221403;23;20032;-79
2021/09/20 03:30:35;;;;;;;5.47;4.35;;;;;;;13.95;58.32;100182.34;6221352;23;20099;-79
2021/09/20 03:33:01;;;;;;;7.90;4.97;;;;;;;13.95;57.80;100182.34;6221298;23;20031;-78
2021/09/20 03:35:28;;;;;;;6.57;5.07;;;;;;;13.92;57.91;100177.22;6221205;23;20526;-78
2021/09/20 03:38:17;;;;;;;6.68;4.70;;;;;;;13.86;58.84;100186.41;6222063;23;20042;-78
2021/09/20 03:40:44;;;;;;;7.20;4.53;;;;;;;13.88;58.13;100187.16;6221192;23;20020;-78
2021/09/20 03:43:10;;;;;;;6.93;4.80;;;;;;;13.86;58.09;100191.69;6221063;23;20028;-78
2021/09/20 03:45:41;;;;;;;9.05;4.75;;;;;;;13.84;58.57;100195.38;6220921;23;20020;-78
2021/09/20 03:48:08;;;;;;;8.38;5.07;;;;;;;13.85;58.30;100194.44;6248979;23;20107;-78
2021/09/20 03:50:50;;;;;;;6.47;4.80;;;;;;;13.79;58.95;100199.19;6221091;23;20030;-79
2021/09/20 03:53:16;;;;;;;7.72;5.10;;;;;;;13.81;58.20;100185.84;6221250;23;20091;-78
2021/09/20 03:55:43;;;;;;;6.45;5.28;;;;;;;13.81;58.47;100199.09;6220918;23;20103;-79
2021/09/20 03:58:11;;;;;;;8.02;5.15;;;;;;;13.80;59.16;100195.56;6221270;23;20499;-79
2021/09/20 04:00:38;;;;;;;8.38;5.18;;;;;;;13.81;59.06;100193.78;6221500;23;20020;-78
2021/09/20 04:03:05;;;;;;;8.25;5.85;;;;;;;13.81;59.16;100191.16;6221081;23;20034;-79
2021/09/20 04:05:35;;;;;;;8.68;5.38;;;;;;;13.82;59.64;100198.13;6220896;23;20020;-78
2021/09/20 04:08:01;;;;;;;7.13;4.80;;;;;;;13.83;59.49;100199.81;6221087;23;20099;-79
2021/09/20 04:10:28;;;;;;;7.60;5.25;;;;;;;13.85;59.44;100205.88;6221520;23;20106;-77
2021/09/20 04:12:55;;;;;;;5.93;5.20;;;;;;;13.88;59.69;100203.03;6220887;23;20049;-78
2021/09/20 04:15:22;;;;;;;9.85;5.57;;;;;;;13.91;59.43;100200.19;6246975;23;20055;-78
2021/09/20 04:17:52;;;;;;;8.02;5.60;;;;;;;13.93;60.39;100203.59;6220314;23;20035;-78
2021/09/20 04:20:19;;;;;;;6.82;5.45;;;;;;;13.99;59.68;100202.34;6221203;23;20343;-78
2021/09/20 04:22:46;;;;;;;6.72;5.20;;;;;;;14.02;59.70;100202.13;6220493;23;20026;-78
2021/09/20 04:25:18;;;;;;;8.88;5.78;;;;;;;14.02;60.57;100196.00;6220556;23;20031;-78
2021/09/20 04:27:45;;;;;;;8.77;6.00;;;;;;;14.08;59.92;100195.59;6220875;23;20087;-78
2021/09/20 04:30:14;;;;;;;10.05;5.20;;;;;;;14.11;60.28;100202.50;6221281;23;20030;-78
2021/09/20 04:32:41;;;;;;;8.25;5.30;;;;;;;14.17;59.88;100205.59;6220806;23;20028;-78
2021/09/20 04:35:15;;;;;;;6.10;5.25;;;;;;;14.18;60.56;100199.38;6220450;23;20032;-78
2021/09/20 04:37:42;;;;;;;8.85;6.45;;;;;;;14.25;59.66;100201.59;6220397;23;20026;-78
2021/09/20 04:40:10;;;;;;;11.18;6.38;;;;;;;14.27;59.84;100210.28;6220761;23;20351;-78
2021/09/20 04:42:48;;;;;;;9.00;5.97;;;;;;;14.27;60.72;100210.28;6220346;23;20020;-78
2021/09/20 04:45:14;;;;;;;11.52;5.63;;;;;;;14.32;59.79;100208.22;6220114;23;20106;-78
2021/09/20 04:47:43;;;;;;;9.20;5.68;;;;;;;14.33;60.14;100218.69;6220902;23;20151;-79
2021/09/20 04:50:10;;;;;;;8.35;5.75;;;;;;;14.36;59.94;100217.66;6247665;23;20406;-79
2021/09/20 04:52:37;;;;;;;10.80;6.47;;;;;;;14.39;60.07;100228.03;6221571;23;20416;-80
2021/09/20 04:55:05;;;;;;;8.00;5.80;;;;;;;14.41;60.24;100226.13;6220287;23;20027;-79
2021/09/20 04:57:32;;;;;;;9.63;6.75;;;;;;;14.45;60.12;100232.94;6219023;23;20020;-79
2021/09/20 04:59:59;;;;;;;7.78;5.90;;;;;;;14.50;60.19;100242.38;6221310;23;20444;-78
2021/09/20 05:02:26;;;;;;;8.27;6.10;;;;;;;14.53;60.30;100234.22;6247102;23;20024;-79
2021/09/20 05:04:53;;;;;;;7.72;5.80;;;;;;;14.56;60.20;100239.31;6220346;23;20028;-78
2021/09/20 05:07:25;;;;;;;9.30;6.18;;;;;;;14.59;60.14;100234.66;6222105;23;20514;-79
2021/09/20 05:09:58;;;;;;;8.82;6.10;;;;;;;14.60;60.77;100251.41;6220765;23;20051;-79
2021/09/20 05:12:24;;;;;;;10.68;5.70;;;;;;;14.65;60.01;100249.28;6220575;23;20020;-79
2021/09/20 05:14:51;;;;;;;8.60;5.88;;;;;;;14.68;60.03;100249.09;6220182;23;20024;-79
2021/09/20 05:17:26;;;;;;;8.63;5.47;;;;;;;14.67;60.64;100252.72;6220189;23;20024;-79
2021/09/20 05:19:53;;;;;;;6.10;4.82;;;;;;;14.71;60.12;100248.91;6220381;23;20485;-79
2021/09/20 05:22:23;;;;;;;7.28;5.50;;;;;;;14.72;60.51;100249.72;6220234;23;20024;-79
2021/09/20 05:24:49;;;;;;;8.27;5.82;;;;;;;14.75;59.99;100251.31;6219981;23;20102;-79
2021/09/20 05:27:16;;;;;;;8.55;5.90;;;;;;;14.77;60.13;100257.41;6220271;23;20022;-79
2021/09/20 05:29:46;;;;;;;8.70;6.03;;;;;;;14.73;60.59;100247.00;6220573;23;20099;-79
2021/09/20 05:32:12;;;;;;;10.07;5.30;;;;;;;14.76;59.95;100250.41;6220313;23;20312;-79
2021/09/20 05:34:39;;;;;;;7.40;5.40;;;;;;;14.77;60.16;100260.06;6219729;23;20100;-79
2021/09/20 05:37:31;;;;;;;7.20;5.55;;;;;;;14.72;60.91;100255.91;6220055;23;20020;-79
2021/09/20 05:39:58;;;;;;;7.75;5.32;;;;;;;14.78;60.23;100254.69;6220154;23;20020;-79
2021/09/20 05:42:25;;;;;;;6.75;4.97;;;;;;;14.79;60.19;100259.00;6220014;23;20106;-79
2021/09/20 05:44:58;;;;;;;8.02;5.65;;;;;;;14.78;60.85;100256.47;6219845;23;20051;-79
2021/09/20 05:47:25;;;;;;;7.15;4.90;;;;;;;14.83;60.16;100259.66;6219977;23;20095;-79
2021/09/20 05:49:51;;;;;;;7.95;5.57;;;;;;;14.83;60.17;100264.94;6219881;23;20024;-79
2021/09/20 05:52:42;;;;;;;6.32;4.75;;;;;;;14.79;60.86;100266.09;6219752;23;20026;-79
2021/09/20 05:55:09;;;;;;;6.70;4.97;;;;;;;14.85;60.11;100266.53;6220119;23;20020;-79
2021/09/20 05:57:36;;;;;;;7.85;5.70;;;;;;;14.87;60.31;100269.09;6219817;23;20024;-79
2021/09/20 06:00:07;;;;;;;7.90;6.05;;;;;;;14.86;60.96;100278.00;6219883;23;20108;-79
2021/09/20 06:02:34;;;;;;;7.28;5.40;;;;;;;14.89;60.40;100272.50;6219605;23;20020;-79
2021/09/20 06:05:02;;;;;;;7.13;5.05;;;;;;;14.90;60.48;100276.84;6217302;23;20020;-79
2021/09/20 06:07:48;;;;;;;6.82;4.82;;;;;;;14.89;60.85;100280.47;6219603;23;20028;-79
2021/09/20 06:10:16;;;;;;;5.55;4.38;;;;;;;14.95;60.68;100280.03;6219898;23;20151;-79
2021/09/20 06:12:46;;;;;;;10.25;4.90;;;;;;;14.97;60.47;100274.63;6219627;23;20020;-79
2021/09/20 06:15:35;;;;;;;8.07;5.07;;;;;;;14.95;61.00;100284.50;6246280;23;20347;-79
2021/09/20 06:18:04;;;;;;;7.97;4.88;;;;;;;15.02;60.45;100283.13;6219524;23;20095;-79
2021/09/20 06:20:47;;;;;;;6.32;4.93;;;;;;;15.00;61.06;100277.09;6220225;23;20027;-79
2021/09/20 06:23:14;;;;;;;4.93;4.43;;;;;;;15.07;60.31;100288.97;6219426;23;20095;-79
2021/09/20 06:25:42;;;;;;;5.88;4.53;;;;;;;15.09;60.46;100291.50;6219831;23;20103;-79
2021/09/20 06:28:13;;;;;;;7.03;4.65;;;;;;;15.11;60.85;100286.97;6219536;23;20096;-79
2021/09/20 06:30:39;;;;;;;6.28;3.90;;;;;;;15.15;60.42;100283.16;6220362;23;20451;-79
2021/09/20 06:33:16;;;;;;;5.57;4.55;;;;;;;15.16;60.98;100297.25;6220622;23;20527;-79
2021/09/20 06:35:43;;;;;;;5.90;4.40;;;;;;;15.20;60.52;100294.28;6219291;23;20034;-79
2021/09/20 06:38:10;;;;;;;6.85;4.15;;;;;;;15.22;60.47;100297.69;6219901;23;20020;-79
2021/09/20 06:40:44;;;;;;;5.68;4.07;;;;;;;15.21;60.84;100293.34;6219372;23;20026;-79
2021/09/20 06:43:11;;;;;;;7.10;4.47;;;;;;;15.28;60.39;100293.75;6222527;23;20143;-79
2021/09/20 06:45:37;;;;;;;6.95;3.88;;;;;;;15.31;60.50;100290.03;6221446;23;20024;-79
2021/09/20 06:48:22;;;;;;;7.18;4.30;;;;;;;15.30;60.88;100301.63;6221668;23;20095;-79
2021/09/20 06:50:49;;;;;;;8.27;4.00;;;;;;;15.37;60.29;100294.94;6248424;23;20103;-79
2021/09/20 06:53:16;;;;;;;5.90;3.85;;;;;;;15.40;60.58;100300.03;6248517;23;20024;-79
2021/09/20 06:55:43;;;;;;;7.10;4.20;;;;;;;15.44;60.57;100296.22;6221163;23;20020;-79
2021/09/20 06:58:09;;;;;;;4.80;3.45;;;;;;;15.47;60.45;100293.34;6221934;23;20024;-79
2021/09/20 07:00:36;;;;;;;7.60;4.30;;;;;;;15.54;60.23;100303.53;6221852;23;20050;-79
2021/09/20 07:03:12;;;;;;;6.07;4.25;;;;;;;15.55;60.40;100310.56;6221953;23;20051;-79
2021/09/20 07:05:41;;;;;;;6.10;3.83;;;;;;;15.61;60.12;100305.66;6221347;23;20030;-79
2021/09/20 07:08:12;;;;;;;7.20;4.15;;;;;;;15.63;60.41;100310.88;6221391;23;20026;-79
2021/09/20 07:10:39;;;;;;;8.05;4.32;;;;;;;15.67;60.10;100315.00;6221295;23;20046;-79
2021/09/20 07:13:09;;;;;;;6.03;3.95;;;;;;;15.71;60.09;100312.97;6221706;23;20110;-79
2021/09/20 07:15:58;;;;;;;6.00;3.95;;;;;;;15.70;60.16;100320.09;6221492;23;20098;-79
2021/09/20 07:18:24;;;;;;;7.32;4.28;;;;;;;15.77;59.66;100320.50;6221774;23;20016;-79
2021/09/20 07:21:13;;;;;;;5.22;3.95;;;;;;;15.76;60.29;100324.97;6221120;23;20026;-79
2021/09/20 07:23:40;;;;;;;6.70;4.32;;;;;;;15.84;59.87;100316.47;6221603;23;20494;-79
2021/09/20 07:26:06;;;;;;;5.38;4.30;;;;;;;15.88;59.73;100317.09;6221715;23;20143;-79
2021/09/20 07:28:36;;;;;;;6.50;3.90;;;;;;;15.90;59.89;100326.66;6221603;23;20016;-79
2021/09/20 07:31:03;;;;;;;6.82;3.80;;;;;;;15.96;59.58;100325.41;6221669;23;20052;-79
2021/09/20 07:33:30;;;;;;;7.70;4.15;;;;;;;16.01;59.67;100322.44;6221325;23;20030;-79
2021/09/20 07:35:56;;;;;;;8.65;4.38;;;;;;;16.05;59.46;100323.06;6221305;23;20336;-79
2021/09/20 07:38:57;;;;;;;6.72;3.78;;;;;;;16.06;59.53;100322.09;6221294;23;20443;-79
2021/09/20 07:41:24;;;;;;;6.75;3.53;;;;;;;16.14;59.13;100323.25;6220898;23;20063;-79
2021/09/20 07:43:51;;;;;;;4.55;3.50;;;;;;;16.19;59.07;100325.59;6247147;23;20020;-79
2021/09/20 07:46:22;;;;;;;4.22;3.10;;;;;;;16.21;58.79;100331.63;6221815;23;20020;-79
2021/09/20 07:48:52;;;;;;;6.97;3.53;;;;;;;16.26;58.87;100336.63;6223777;23;20105;-79
2021/09/20 07:51:22;;;;;;;4.03;3.10;;;;;;;16.29;58.91;100341.69;6221436;23;20028;-79
2021/09/20 07:53:49;;;;;;;4.38;3.10;;;;;;;16.35;58.78;100338.63;6221087;23;20091;-79
2021/09/20 07:56:16;;;;;;;4.03;3.00;;;;;;;16.40;58.50;100344.44;6220826;23;20026;-79
2021/09/20 07:59:03;;;;;;;4.03;2.90;;;;;;;16.41;58.02;100350.59;6220936;23;20022;-79
2021/09/20 08:01:30;;;;;;;4.07;2.90;;;;;;;16.51;57.97;100356.94;6221066;23;20024;-79
2021/09/20 08:03:57;;;;;;;5.07;3.15;;;;;;;16.54;57.81;100362.03;6220967;23;20031;-79
2021/09/20 08:06:47;;;;;;;4.25;2.75;;;;;;;16.53;57.86;100360.31;6247420;23;20024;-79
2021/09/20 08:09:14;;;;;;;5.30;3.08;;;;;;;16.63;57.54;100363.16;6221349;23;20098;-79
2021/09/20 08:12:18;;;;;;;5.03;3.30;;;;;;;16.63;57.70;100359.69;6221502;23;20020;-79
2021/09/20 08:14:45;;;;;;;3.58;2.60;;;;;;;16.73;57.45;100363.34;6220925;23;20031;-79
2021/09/20 08:17:12;;;;;;;3.40;2.80;;;;;;;16.78;57.41;100368.31;6220803;23;20074;-79
2021/09/20 08:19:48;;;;;;;3.78;2.78;;;;;;;16.80;57.11;100369.91;6221154;23;20024;-79
2021/09/20 08:22:14;;;;;;;4.53;2.70;;;;;;;16.89;56.80;100363.06;6221176;23;20030;-79
2021/09/20 08:24:41;;;;;;;4.93;2.70;;;;;;;16.94;57.05;100368.88;6220965;23;20407;-79
2021/09/20 08:27:09;;;;;;;4.25;2.35;;;;;;;16.99;56.56;100365.03;6221069;23;20103;-79
2021/09/20 08:29:36;;;;;;;3.80;2.15;;;;;;;17.05;56.56;100373.44;6221141;23;20478;-79
2021/09/20 08:32:34;;;;;;;4.70;2.30;;;;;;;17.08;55.93;100374.19;6247499;23;20050;-79
2021/09/20 08:35:02;;;;;;;3.53;2.17;;;;;;;17.21;56.09;100376.75;6221091;23;20335;-79
2021/09/20 08:37:29;;;;;;;5.50;2.08;;;;;;;17.26;55.91;100370.13;6220466;23;20027;-79
2021/09/20 08:40:06;;;;;;;5.40;2.45;;;;;;;17.29;55.11;100367.25;6220612;23;20028;-79
2021/09/20 08:42:35;;;;;;;3.42;2.20;;;;;;;17.38;55.13;100368.34;6220849;23;20029;-79
2021/09/20 08:45:09;;;;;;;3.45;2.17;;;;;;;17.43;55.15;100373.31;6221076;23;20020;-79
2021/09/20 08:47:50;;;;;;;3.13;2.10;;;;;;;17.49;55.06;100378.16;6220995;23;20414;-79
2021/09/20 08:50:24;;;;;;;3.97;2.08;;;;;;;17.57;53.94;100383.75;6221299;23;20028;-79
2021/09/20 08:52:53;;;;;;;3.50;1.98;;;;;;;17.64;53.77;100385.97;6101064;23;20097;-81
2021/09/20 08:55:21;;;;;;;4.00;1.88;;;;;;;17.67;53.39;100388.38;6100922;23;20037;-79
2021/09/20 08:57:57;;;;;;;2.55;1.75;;;;;;;17.66;51.78;100389.34;6100619;23;20026;-80
2021/09/20 09:00:24;;;;;;;3.10;1.35;;;;;;;17.73;51.80;100393.25;6125469;23;20030;-79
2021/09/20 09:02:51;;;;;;;2.33;1.13;;;;;;;17.75;51.54;100398.44;6100524;23;20437;-79
2021/09/20 09:05:32;;;;;;;2.63;1.42;;;;;;;17.72;50.52;100396.88;6124301;23;20022;-79
2021/09/20 09:08:06;;;;;;;2.85;1.45;;;;;;;17.78;50.94;100403.50;6125042;23;20105;-79
2021/09/20 09:10:36;;;;;;;8.23;1.58;;;;;;;17.80;50.91;100410.41;6137115;23;20102;-79
2021/09/20 09:13:13;;;;;;;2.40;1.30;;;;;;;17.82;50.44;100410.28;6220221;23;20062;-78
2021/09/20 09:15:47;;;;;;;5.05;1.30;;;;;;;17.87;49.86;100416.13;6220446;23;20447;-79
2021/09/20 09:18:14;;;;;;;3.05;1.30;;;;;;;17.96;50.51;100422.56;6204825;23;20020;-79
2021/09/20 09:20:43;;;;;;;3.63;1.27;;;;;;;17.98;50.29;100424.13;6220591;23;20024;-79
2021/09/20 09:23:13;;;;;;;2.13;1.20;;;;;;;18.07;50.37;100419.06;6220421;23;20023;-79
2021/09/20 09:25:45;;;;;;;2.65;1.20;;;;;;;18.16;49.64;100417.53;6220033;23;20027;-79
2021/09/20 09:28:28;;;;;;;3.05;1.20;;;;;;;18.25;49.32;100431.94;6220231;23;20058;-79
2021/09/20 09:31:00;;;;;;;8.60;1.33;;;;;;;18.34;48.87;100432.06;6221235;23;20031;-79
2021/09/20 09:33:42;;;;;;;1.25;1.02;;;;;;;18.39;49.06;100439.66;6221008;23;20343;-79
2021/09/20 09:36:11;;;;;;;2.88;1.10;;;;;;;18.51;49.46;100437.00;6220325;23;20024;-79
2021/09/20 09:38:56;;;;;;;2.10;0.93;;;;;;;18.55;48.76;100441.97;6221033;23;20102;-79
2021/09/20 09:41:42;;;;;;;1.80;1.00;;;;;;;18.64;48.56;100431.56;6220424;23;20024;-79
2021/09/20 09:44:13;;;;;;;1.50;1.20;;;;;;;18.73;48.05;100441.47;6220477;23;20095;-79
2021/09/20 09:46:45;;;;;;;2.85;1.02;;;;;;;18.81;48.17;100439.03;6220265;23;20103;-79
2021/09/20 09:49:34;;;;;;;1.45;1.00;;;;;;;18.85;47.70;100434.28;6219935;23;20016;-79
2021/09/20 09:52:10;;;;;;;1.95;1.08;;;;;;;18.95;46.84;100439.72;6219817;23;20102;-79
2021/09/20 09:54:41;;;;;;;2.05;0.80;;;;;;;19.02;46.80;100436.41;6220621;23;20531;-79
2021/09/20 09:57:12;;;;;;;2.03;1.05;;;;;;;19.08;46.44;100432.44;6220175;23;20031;-79
2021/09/20 10:00:01;;;;;;;2.05;1.10;;;;;;;19.12;47.03;100430.34;6220659;23;20037;-79
2021/09/20 10:02:30;;;;;;;2.55;1.40;;;;;;;19.23;47.24;100432.13;6246430;23;20028;-79
2021/09/20 10:05:09;;;;;;;1.27;0.98;;;;;;;19.26;46.12;100430.03;6246350;23;20059;-79
2021/09/20 10:07:38;;;;;;;1.73;0.93;;;;;;;19.37;46.41;100426.47;6219798;23;20099;-79
2021/09/20 10:10:26;;;;;;;1.65;0.85;;;;;;;19.44;45.67;100429.47;6219760;23;20112;-79
2021/09/20 10:12:55;;;;;;;1.73;1.20;;;;;;;19.56;45.91;100426.75;6220382;23;20020;-79
2021/09/20 10:15:32;;;;;;;1.08;0.98;;;;;;;19.56;45.01;100422.28;6219694;23;20032;-79
2021/09/20 10:17:59;;;;;;;1.08;0.82;;;;;;;19.63;45.18;100427.94;6219601;23;20023;-80
2021/09/20 10:20:31;;;;;;;1.20;0.90;;;;;;;19.60;44.63;100429.06;6220120;23;20351;-79
2021/09/20 10:22:58;;;;;;;1.63;1.27;;;;;;;19.60;45.30;100431.72;6219986;23;20106;-79
2021/09/20 10:25:28;;;;;;;2.30;1.13;;;;;;;19.53;44.95;100426.06;6219477;23;20020;-79
2021/09/20 10:27:57;;;;;;;1.40;0.90;;;;;;;19.49;44.47;100429.09;6219449;23;20078;-80
2021/09/20 10:30:29;;;;;;;1.77;1.10;;;;;;;19.39;44.14;100432.56;6219610;23;20054;-79
2021/09/20 10:33:00;;;;;;;3.10;1.00;;;;;;;19.32;44.11;100431.38;6219604;23;20051;-80
2021/09/20 10:35:35;;;;;;;1.98;1.30;;;;;;;19.23;43.50;100437.47;6219753;23;20448;-80
2021/09/20 10:38:29;;;;;;;3.88;1.25;;;;;;;19.11;44.05;100437.50;6220022;23;20020;-79
2021/09/20 10:41:17;;;;;;;1.88;1.15;;;;;;;19.02;44.41;100435.56;6219946;23;20020;-79
2021/09/20 10:46:41;;;;;;;3.03;0.90;;;;;;;18.97;43.96;100441.28;6246132;23;20020;-79
2021/09/20 10:49:22;;;;;;;1.20;0.90;;;;;;;18.90;44.17;100432.09;6246486;23;20510;-80
2021/09/20 10:52:30;;;;;;;1.63;0.93;;;;;;;18.89;44.29;100430.41;6219868;23;20465;-79
2021/09/20 10:55:10;;;;;;;1.23;0.98;;;;;;;18.90;43.27;100432.09;6219188;23;20402;-80
2021/09/20 10:57:37;;;;;;;2.78;1.00;;;;;;;18.93;43.96;100436.31;6219649;23;20020;-80
2021/09/20 11:00:24;;;;;;;1.42;1.15;;;;;;;18.88;44.04;100434.88;6219665;23;20024;-79
2021/09/20 11:02:52;;;;;;;1.25;0.95;;;;;;;18.92;43.93;100426.63;6245960;23;20106;-79
2021/09/20 11:05:26;;;;;;;1.80;0.93;;;;;;;18.88;43.58;100432.22;6219411;23;20055;-79
2021/09/20 11:08:18;;;;;;;1.38;1.00;;;;;;;18.86;43.79;100433.31;6099492;23;20105;-79
2021/09/20 11:10:46;;;;;;;2.47;1.00;;;;;;;18.88;44.21;100434.03;6124002;23;20100;-79
2021/09/20 11:13:22;;;;;;;1.38;1.00;;;;;;;18.81;43.47;100430.19;6099774;23;20033;-79
2021/09/20 11:15:48;;;;;;;1.95;1.02;;;;;;;18.82;43.92;100427.38;6099466;23;20032;-79
2021/09/20 11:18:37;;;;;;;3.50;1.38;;;;;;;18.74;43.91;100428.03;6124010;23;20021;-80
2021/09/20 11:21:06;;;;;;;1.48;1.00;;;;;;;18.78;43.47;100433.09;6124032;23;20029;-79
2021/09/20 11:23:36;;;;;;;2.10;1.00;;;;;;;18.74;43.64;100429.81;6099437;23;20161;-79
2021/09/20 11:26:04;;;;;;;3.35;1.20;;;;;;;18.70;43.50;100431.91;6100160;23;20064;-79
2021/09/20 11:28:40;;;;;;;1.75;0.98;;;;;;;18.65;43.42;100433.25;6125499;23;20093;-79
2021/09/20 11:31:07;;;;;;;1.60;0.98;;;;;;;18.68;43.70;100432.97;6101788;23;20513;-79
2021/09/20 11:33:43;;;;;;;2.05;1.10;;;;;;;18.67;43.55;100436.63;6214565;23;20020;-80
2021/09/20 11:36:14;;;;;;;3.33;1.20;;;;;;;18.70;43.31;100428.38;6221400;23;20074;-79
2021/09/20 11:38:41;;;;;;;3.67;0.95;;;;;;;18.75;44.29;100434.19;6221458;23;20026;-79
2021/09/20 11:41:25;;;;;;;1.80;1.10;;;;;;;18.74;44.31;100430.69;6221193;23;20024;-79
2021/09/20 11:43:53;;;;;;;2.75;1.10;;;;;;;18.85;44.33;100428.97;6221144;23;20020;-79
2021/09/20 11:46:22;;;;;;;3.75;1.10;;;;;;;18.91;45.09;100427.63;6222360;23;20102;-79